Time;durP1;ratioP1;P1;durP2;ratioP2;P2;SDS_P1;SDS_P2;PMS_P1;PMS_P2;Temp;Humidity;BMP_temperature;BMP_pressure;BME280_temperature;BME280_humidity;BME280_pressure;Samples;Min_cycle;Max_cycle;Signal;HPM_P1;HPM_P2
2021/07/09 00:02:05;;;;;;;6.10;5.50;;;16.00;99.90;;;;;;5035170;28;20477;-64
2021/07/09 00:04:31;;;;;;;6.07;5.43;;;16.10;99.90;;;;;;5035097;28;20989;-64
2021/07/09 00:06:57;;;;;;;6.37;5.20;;;16.10;99.90;;;;;;5033964;28;20413;-64
2021/07/09 00:09:24;;;;;;;7.40;6.80;;;16.10;99.90;;;;;;5034308;28;20195;-65
2021/07/09 00:11:53;;;;;;;5.57;5.07;;;16.10;99.90;;;;;;5034609;28;20459;-64
2021/07/09 00:14:23;;;;;;;6.70;6.03;;;16.10;99.90;;;;;;5034698;28;20994;-64
2021/07/09 00:16:49;;;;;;;6.30;5.70;;;16.20;99.90;;;;;;5034637;28;20413;-61
2021/07/09 00:19:15;;;;;;;6.50;6.00;;;16.10;99.90;;;;;;5034127;28;20428;-61
2021/07/09 00:21:41;;;;;;;6.00;5.60;;;16.20;99.90;;;;;;5034477;28;20179;-64
2021/07/09 00:24:08;;;;;;;5.80;5.30;;;16.20;99.90;;;;;;5034698;28;20216;-61
2021/07/09 00:26:35;;;;;;;6.60;6.00;;;16.20;99.90;;;;;;5034445;28;20934;-59
2021/07/09 00:29:01;;;;;;;5.37;4.67;;;16.20;99.90;;;;;;5034239;28;20483;-63
2021/07/09 00:31:29;;;;;;;6.23;5.83;;;16.20;99.90;;;;;;5034325;28;20523;-64
2021/07/09 00:33:59;;;;;;;6.67;5.87;;;16.20;99.90;;;;;;5034291;28;20420;-64
2021/07/09 00:36:25;;;;;;;6.70;6.20;;;16.20;99.90;;;;;;5033273;28;20507;-64
2021/07/09 00:38:51;;;;;;;6.30;5.70;;;16.20;99.90;;;;;;5033995;28;20429;-64
2021/07/09 00:41:17;;;;;;;6.03;5.60;;;16.30;99.90;;;;;;5034383;28;20796;-61
2021/07/09 00:43:43;;;;;;;5.90;5.40;;;16.30;99.90;;;;;;5034258;28;20576;-61
2021/07/09 00:46:09;;;;;;;6.40;5.80;;;16.30;99.90;;;;;;5034074;28;20443;-61
2021/07/09 00:48:35;;;;;;;8.00;6.13;;;16.20;99.90;;;;;;5033706;28;20200;-65
2021/07/09 00:51:06;;;;;;;6.60;6.00;;;16.20;99.90;;;;;;5033850;28;20452;-66
2021/07/09 00:53:32;;;;;;;9.63;5.73;;;16.20;99.90;;;;;;5034009;28;20445;-61
2021/07/09 00:55:58;;;;;;;6.60;6.00;;;16.20;99.90;;;;;;5033908;28;20444;-64
2021/07/09 00:58:24;;;;;;;6.33;5.83;;;16.10;99.90;;;;;;5033506;28;20209;-63
2021/07/09 01:00:49;;;;;;;8.83;8.03;;;16.10;99.90;;;;;;5033784;28;20747;-67
2021/07/09 01:03:16;;;;;;;8.53;7.37;;;16.10;99.90;;;;;;5033705;28;20496;-63
2021/07/09 01:05:42;;;;;;;7.03;6.53;;;16.00;99.90;;;;;;5033692;28;20182;-64
2021/07/09 01:08:07;;;;;;;6.70;6.27;;;16.00;99.90;;;;;;5033581;28;20417;-64
2021/07/09 01:10:33;;;;;;;7.70;7.00;;;16.00;99.90;;;;;;5033278;28;20293;-61
2021/07/09 01:12:59;;;;;;;6.93;6.33;;;16.00;99.90;;;;;;5032317;28;20181;-64
2021/07/09 01:15:25;;;;;;;8.00;6.40;;;15.90;99.90;;;;;;5033525;28;20206;-64
2021/07/09 01:17:51;;;;;;;7.27;6.77;;;15.90;99.90;;;;;;5033452;28;20837;-64
2021/07/09 01:20:18;;;;;;;7.10;6.50;;;15.90;99.90;;;;;;5033091;28;20197;-61
2021/07/09 01:22:46;;;;;;;8.13;7.43;;;15.90;99.90;;;;;;5033409;28;20416;-61
2021/07/09 01:25:15;;;;;;;10.10;8.40;;;15.90;99.90;;;;;;5033410;28;20420;-62
2021/07/09 01:27:43;;;;;;;8.10;7.40;;;15.90;99.90;;;;;;5033531;28;20996;-62
2021/07/09 01:30:12;;;;;;;7.53;7.00;;;15.90;99.90;;;;;;5031538;28;20452;-64
2021/07/09 01:32:37;;;;;;;9.57;8.57;;;16.00;99.90;;;;;;5031633;28;20428;-64
2021/07/09 01:35:04;;;;;;;8.27;7.60;;;16.00;99.90;;;;;;5033207;28;20413;-64
2021/07/09 01:37:30;;;;;;;7.50;6.70;;;16.00;99.90;;;;;;5033280;28;20167;-64
2021/07/09 01:39:56;;;;;;;9.30;8.50;;;15.90;99.90;;;;;;5032674;28;20436;-64
2021/07/09 01:42:21;;;;;;;7.50;6.80;;;15.90;99.90;;;;;;5033004;28;20606;-65
2021/07/09 01:44:47;;;;;;;6.73;6.20;;;15.90;99.90;;;;;;5033160;28;20667;-61
2021/07/09 01:47:13;;;;;;;6.93;6.33;;;15.90;99.90;;;;;;5032791;28;20175;-64
2021/07/09 01:50:03;;;;;;;5.30;4.90;;;15.90;99.90;;;;;;5032585;28;20440;-64
2021/07/09 01:52:29;;;;;;;6.70;6.10;;;15.80;99.90;;;;;;5032723;28;20189;-61
2021/07/09 01:54:55;;;;;;;6.50;6.00;;;15.80;99.90;;;;;;5032823;28;20918;-65
2021/07/09 01:57:21;;;;;;;5.80;5.30;;;15.80;99.90;;;;;;5032630;28;20409;-64
2021/07/09 01:59:47;;;;;;;6.07;5.50;;;15.80;99.90;;;;;;5032217;28;20467;-63
2021/07/09 02:02:13;;;;;;;5.83;5.33;;;15.80;99.90;;;;;;5032631;28;20220;-64
2021/07/09 02:04:54;;;;;;;5.17;4.77;;;15.70;99.90;;;;;;5032780;28;20436;-66
2021/07/09 02:07:21;;;;;;;6.10;5.30;;;15.70;99.90;;;;;;5032536;28;20417;-64
2021/07/09 02:09:49;;;;;;;6.53;4.70;;;15.60;99.90;;;;;;5032189;28;20437;-64
2021/07/09 02:12:17;;;;;;;6.17;5.67;;;15.70;99.90;;;;;;5032340;28;20559;-61
2021/07/09 02:14:43;;;;;;;5.70;5.20;;;15.60;99.90;;;;;;5032583;28;20441;-64
2021/07/09 02:17:15;;;;;;;8.00;5.20;;;15.60;99.90;;;;;;5032298;28;20946;-64
2021/07/09 02:19:42;;;;;;;6.10;4.90;;;15.70;99.90;;;;;;5031926;28;20201;-64
2021/07/09 02:22:11;;;;;;;6.87;4.90;;;15.70;99.90;;;;;;5032274;28;20515;-64
2021/07/09 02:24:42;;;;;;;5.67;5.13;;;15.70;99.90;;;;;;5032322;28;20843;-63
2021/07/09 02:27:08;;;;;;;5.83;5.43;;;15.70;99.90;;;;;;5032319;28;20948;-61
2021/07/09 02:29:35;;;;;;;5.03;4.50;;;15.60;99.90;;;;;;5031519;28;20445;-62
2021/07/09 02:32:02;;;;;;;5.73;5.33;;;15.70;99.90;;;;;;5032100;28;20449;-65
2021/07/09 02:34:28;;;;;;;5.80;5.30;;;15.70;99.90;;;;;;5032184;28;20415;-64
2021/07/09 02:36:54;;;;;;;5.30;4.50;;;15.70;99.90;;;;;;5032179;28;20427;-64
2021/07/09 02:39:20;;;;;;;17.20;6.27;;;15.70;99.90;;;;;;5031707;28;20890;-64
2021/07/09 02:41:46;;;;;;;5.30;4.90;;;15.70;99.90;;;;;;5032121;28;20416;-63
2021/07/09 02:44:11;;;;;;;8.20;4.90;;;15.70;99.90;;;;;;5032117;28;20428;-64
2021/07/09 02:46:37;;;;;;;5.07;4.67;;;15.70;99.90;;;;;;5031950;28;20181;-62
2021/07/09 02:49:03;;;;;;;5.20;4.80;;;15.70;99.90;;;;;;5031648;28;20202;-61
2021/07/09 02:51:29;;;;;;;5.27;4.87;;;15.60;99.90;;;;;;5032007;28;20198;-60
2021/07/09 02:53:54;;;;;;;5.30;4.90;;;15.60;99.90;;;;;;5031962;28;20520;-61
2021/07/09 02:56:20;;;;;;;5.20;4.70;;;15.60;99.90;;;;;;5030896;28;20166;-64
2021/07/09 02:58:45;;;;;;;6.17;5.67;;;15.60;99.90;;;;;;5031540;28;20687;-64
2021/07/09 03:01:11;;;;;;;5.87;5.37;;;15.60;99.90;;;;;;5031862;28;20262;-63
2021/07/09 03:03:37;;;;;;;4.70;4.40;;;15.60;99.90;;;;;;5031950;28;20216;-64
2021/07/09 03:06:02;;;;;;;6.73;6.00;;;15.50;99.90;;;;;;5031810;28;20257;-66
2021/07/09 03:08:28;;;;;;;5.37;4.97;;;15.60;99.90;;;;;;5031368;28;20198;-64
2021/07/09 03:10:53;;;;;;;5.33;4.80;;;15.60;99.90;;;;;;5031695;28;20208;-64
2021/07/09 03:13:19;;;;;;;4.90;4.50;;;15.50;99.90;;;;;;5030563;28;20205;-63
2021/07/09 03:15:44;;;;;;;5.57;5.00;;;15.50;99.90;;;;;;5031994;28;20170;-60
2021/07/09 03:18:10;;;;;;;5.27;4.77;;;15.60;99.90;;;;;;5031598;28;20594;-64
2021/07/09 03:20:35;;;;;;;5.57;5.07;;;15.50;99.90;;;;;;5031471;28;20697;-65
2021/07/09 03:23:01;;;;;;;5.17;4.87;;;15.50;99.90;;;;;;5031713;28;20185;-63
2021/07/09 03:25:26;;;;;;;7.37;4.57;;;15.50;99.90;;;;;;5031414;28;20248;-64
2021/07/09 03:27:52;;;;;;;5.70;5.30;;;15.50;99.90;;;;;;5031741;28;20175;-65
2021/07/09 03:30:18;;;;;;;5.60;5.10;;;15.60;99.90;;;;;;5031202;28;20202;-63
2021/07/09 03:32:43;;;;;;;5.97;5.37;;;15.60;99.90;;;;;;5031576;28;20174;-64
2021/07/09 03:35:11;;;;;;;5.77;5.37;;;15.60;99.90;;;;;;5030380;28;20544;-64
2021/07/09 03:37:37;;;;;;;6.87;6.27;;;15.50;99.90;;;;;;5031563;28;20178;-64
2021/07/09 03:40:04;;;;;;;8.43;6.23;;;15.50;99.90;;;;;;5031202;28;20937;-64
2021/07/09 03:42:30;;;;;;;6.10;5.40;;;15.50;99.90;;;;;;5033564;28;20420;-64
2021/07/09 03:44:55;;;;;;;6.70;6.10;;;15.60;99.90;;;;;;5035224;28;20944;-64
2021/07/09 03:47:21;;;;;;;5.97;5.57;;;15.60;99.90;;;;;;5035335;28;20170;-62
2021/07/09 03:49:46;;;;;;;7.07;6.43;;;15.70;99.90;;;;;;5034806;28;20186;-61
2021/07/09 03:52:12;;;;;;;5.90;5.30;;;15.80;99.90;;;;;;5035098;28;20198;-63
2021/07/09 03:54:37;;;;;;;5.70;4.83;;;15.80;99.90;;;;;;5035174;28;20174;-63
2021/07/09 03:57:03;;;;;;;5.30;5.00;;;15.90;99.90;;;;;;5035102;28;20176;-64
2021/07/09 03:59:29;;;;;;;5.93;5.37;;;15.90;99.90;;;;;;5034901;28;20309;-65
2021/07/09 04:01:54;;;;;;;6.77;5.77;;;15.90;99.90;;;;;;5034942;28;20432;-64
2021/07/09 04:04:20;;;;;;;5.90;5.50;;;15.90;99.90;;;;;;5034899;28;20210;-64
2021/07/09 04:06:45;;;;;;;6.60;5.53;;;16.00;99.90;;;;;;5034616;28;20186;-66
2021/07/09 04:09:11;;;;;;;5.40;4.80;;;16.00;99.90;;;;;;5034455;28;20201;-64
2021/07/09 04:11:36;;;;;;;6.43;5.47;;;15.90;99.90;;;;;;5034666;28;20209;-64
2021/07/09 04:14:02;;;;;;;6.47;5.87;;;15.80;99.90;;;;;;5033474;28;20196;-64
2021/07/09 04:16:27;;;;;;;6.43;5.83;;;15.80;99.90;;;;;;5034764;28;20285;-64
2021/07/09 04:18:53;;;;;;;6.93;6.33;;;15.80;99.90;;;;;;5034280;28;20530;-63
2021/07/09 04:21:19;;;;;;;6.10;5.60;;;15.80;99.90;;;;;;5034684;28;20173;-65
2021/07/09 04:23:44;;;;;;;6.47;5.27;;;15.80;99.90;;;;;;5034310;28;20182;-63
2021/07/09 04:26:10;;;;;;;5.73;5.23;;;15.70;99.90;;;;;;5034484;28;20170;-64
2021/07/09 04:28:36;;;;;;;6.47;5.83;;;15.80;99.90;;;;;;5034099;28;20198;-64
2021/07/09 04:31:01;;;;;;;7.10;5.67;;;15.90;99.90;;;;;;5033090;28;20206;-64
2021/07/09 04:33:27;;;;;;;5.40;5.00;;;16.00;99.90;;;;;;5034393;28;20564;-64
2021/07/09 04:35:52;;;;;;;6.90;6.30;;;16.00;99.90;;;;;;5034304;28;20224;-64
2021/07/09 04:38:18;;;;;;;5.97;5.47;;;16.00;99.90;;;;;;5034121;28;20232;-63
2021/07/09 04:40:44;;;;;;;4.57;4.03;;;16.00;99.90;;;;;;5034061;28;20202;-64
2021/07/09 04:43:10;;;;;;;5.80;5.03;;;16.10;99.90;;;;;;5034312;28;20420;-64
2021/07/09 04:45:36;;;;;;;6.20;5.60;;;16.10;99.90;;;;;;5034126;28;20444;-64
2021/07/09 04:48:01;;;;;;;5.50;5.00;;;16.10;99.90;;;;;;5033942;28;20270;-64
2021/07/09 04:50:27;;;;;;;5.00;4.60;;;16.00;99.90;;;;;;5033602;28;20198;-63
2021/07/09 04:52:53;;;;;;;5.47;4.93;;;15.90;99.90;;;;;;5033719;28;20175;-64
2021/07/09 04:55:18;;;;;;;5.10;4.70;;;15.90;99.90;;;;;;5034107;28;20178;-64
2021/07/09 04:57:44;;;;;;;5.60;5.07;;;15.90;99.90;;;;;;5033949;28;20172;-66
2021/07/09 05:00:10;;;;;;;5.43;5.03;;;15.90;99.90;;;;;;5033428;28;20210;-63
2021/07/09 05:02:37;;;;;;;4.90;4.40;;;15.90;99.90;;;;;;5033857;28;20174;-63
2021/07/09 05:05:12;;;;;;;5.27;4.87;;;16.10;99.90;;;;;;5033779;28;20417;-64
2021/07/09 05:07:37;;;;;;;5.27;4.70;;;16.20;99.90;;;;;;5033781;28;20470;-66
2021/07/09 05:10:07;;;;;;;4.70;4.20;;;16.20;99.90;;;;;;5033419;28;20437;-64
2021/07/09 05:12:33;;;;;;;5.43;4.93;;;16.10;99.90;;;;;;5033610;28;20525;-64
2021/07/09 05:14:58;;;;;;;4.80;4.30;;;16.10;99.90;;;;;;5033563;28;20425;-66
2021/07/09 05:17:24;;;;;;;8.03;4.60;;;16.00;99.90;;;;;;5033444;28;20420;-66
2021/07/09 05:19:53;;;;;;;7.03;4.20;;;16.10;99.90;;;;;;5033118;28;20563;-65
2021/07/09 05:22:22;;;;;;;6.93;4.63;;;16.00;99.90;;;;;;5033412;28;20174;-66
2021/07/09 05:24:52;;;;;;;5.17;4.87;;;16.00;99.90;;;;;;5033403;28;20925;-66
2021/07/09 05:27:18;;;;;;;5.00;4.60;;;15.90;99.90;;;;;;5033365;28;20443;-67
2021/07/09 05:29:44;;;;;;;4.83;4.53;;;15.70;99.90;;;;;;5032953;28;20441;-67
2021/07/09 05:32:09;;;;;;;5.93;5.43;;;15.70;99.90;;;;;;5033019;28;20190;-66
2021/07/09 05:34:35;;;;;;;8.10;4.80;;;15.70;99.90;;;;;;5033276;28;20171;-64
2021/07/09 05:37:02;;;;;;;6.03;5.53;;;15.60;99.90;;;;;;5033135;28;20167;-67
2021/07/09 05:39:28;;;;;;;5.70;5.13;;;15.60;99.90;;;;;;5031467;28;20217;-65
2021/07/09 05:41:53;;;;;;;5.07;4.77;;;15.60;99.90;;;;;;5033006;28;20972;-66
2021/07/09 05:44:19;;;;;;;5.80;4.60;;;15.60;99.90;;;;;;5033050;28;20581;-67
2021/07/09 05:46:46;;;;;;;5.30;5.00;;;15.70;99.90;;;;;;5032771;28;20178;-66
2021/07/09 05:49:12;;;;;;;5.40;4.90;;;15.70;99.90;;;;;;5032598;28;20189;-66
2021/07/09 05:51:38;;;;;;;5.13;4.73;;;15.60;99.90;;;;;;5032786;28;20479;-66
2021/07/09 05:54:03;;;;;;;6.67;6.10;;;15.40;99.90;;;;;;5032846;28;20166;-66
2021/07/09 05:56:29;;;;;;;8.07;6.57;;;15.40;99.90;;;;;;5032849;28;20269;-66
2021/07/09 05:58:54;;;;;;;5.17;4.70;;;15.30;99.90;;;;;;5032216;28;20229;-66
2021/07/09 06:01:20;;;;;;;7.07;6.50;;;15.30;99.90;;;;;;5032767;28;20594;-65
2021/07/09 06:03:45;;;;;;;6.37;5.87;;;15.30;99.90;;;;;;5032551;28;20599;-66
2021/07/09 06:06:11;;;;;;;6.80;6.30;;;15.30;99.90;;;;;;5032204;28;20541;-66
2021/07/09 06:08:36;;;;;;;6.57;6.07;;;15.30;99.90;;;;;;5032072;28;20198;-66
2021/07/09 06:11:02;;;;;;;6.10;5.70;;;15.40;99.90;;;;;;5032372;28;20676;-66
2021/07/09 06:13:27;;;;;;;6.47;6.00;;;15.30;99.90;;;;;;5032491;28;20198;-66
2021/07/09 06:15:55;;;;;;;7.00;6.50;;;15.40;99.90;;;;;;5032348;28;20584;-66
2021/07/09 06:18:20;;;;;;;7.47;6.80;;;15.50;99.90;;;;;;5032100;28;20696;-66
2021/07/09 06:20:46;;;;;;;7.00;6.40;;;15.60;99.90;;;;;;5032523;28;20508;-66
2021/07/09 06:23:11;;;;;;;6.83;6.23;;;15.60;99.90;;;;;;5032022;28;20182;-65
2021/07/09 06:25:37;;;;;;;7.00;6.30;;;15.60;99.90;;;;;;5031658;28;20189;-66
2021/07/09 06:28:03;;;;;;;7.63;6.50;;;15.60;99.90;;;;;;5031673;28;20173;-66
2021/07/09 06:30:29;;;;;;;7.30;6.70;;;15.60;99.90;;;;;;5032100;28;20809;-66
2021/07/09 06:32:54;;;;;;;6.80;6.30;;;15.60;99.90;;;;;;5032026;28;20186;-66
2021/07/09 06:35:20;;;;;;;6.37;5.40;;;15.70;99.90;;;;;;5031782;28;20324;-66
2021/07/09 06:37:46;;;;;;;7.43;6.50;;;15.70;99.90;;;;;;5027591;28;20182;-66
2021/07/09 06:40:12;;;;;;;7.80;7.10;;;15.70;99.90;;;;;;5003613;28;20198;-65
2021/07/09 06:42:37;;;;;;;6.50;6.00;;;15.80;99.90;;;;;;5016006;28;20261;-66
2021/07/09 06:45:04;;;;;;;5.80;5.40;;;15.90;99.90;;;;;;5030903;28;20174;-64
2021/07/09 06:47:30;;;;;;;7.77;7.17;;;16.00;99.90;;;;;;5012306;28;20175;-64
2021/07/09 06:49:55;;;;;;;6.53;6.03;;;16.10;99.90;;;;;;5024578;28;20836;-67
2021/07/09 06:52:21;;;;;;;9.33;8.63;;;16.20;99.90;;;;;;5031510;28;20198;-66
2021/07/09 06:54:46;;;;;;;6.83;6.30;;;16.30;99.90;;;;;;5031878;28;20626;-66
2021/07/09 06:57:12;;;;;;;6.80;6.20;;;16.40;99.90;;;;;;5031791;28;20162;-64
2021/07/09 06:59:37;;;;;;;5.47;5.07;;;16.40;99.90;;;;;;5027297;28;20205;-66
2021/07/09 07:02:03;;;;;;;6.03;5.53;;;16.60;99.90;;;;;;5032061;28;20171;-67
2021/07/09 07:04:29;;;;;;;6.40;5.90;;;16.70;99.90;;;;;;5031559;28;20666;-67
2021/07/09 07:06:54;;;;;;;6.40;5.77;;;16.90;99.90;;;;;;5031868;28;20182;-67
2021/07/09 07:09:20;;;;;;;6.40;5.90;;;17.00;99.90;;;;;;5027434;28;20194;-68
2021/07/09 07:11:45;;;;;;;6.30;5.80;;;17.00;99.90;;;;;;5031216;28;20201;-67
2021/07/09 07:14:12;;;;;;;6.57;6.00;;;17.00;99.90;;;;;;5031443;28;20253;-67
2021/07/09 07:16:38;;;;;;;6.43;5.83;;;17.00;99.90;;;;;;5034114;28;20174;-67
2021/07/09 07:19:03;;;;;;;8.40;7.70;;;17.00;99.90;;;;;;5035138;28;20843;-68
2021/07/09 07:21:29;;;;;;;6.97;6.37;;;17.20;99.90;;;;;;5035694;28;20178;-66
2021/07/09 07:23:55;;;;;;;7.77;7.17;;;17.20;99.90;;;;;;5035467;28;20193;-68
2021/07/09 07:26:21;;;;;;;7.70;7.00;;;17.40;99.90;;;;;;5032532;28;20470;-65
2021/07/09 07:28:46;;;;;;;6.60;6.20;;;17.60;99.90;;;;;;5028815;28;20597;-67
2021/07/09 07:31:12;;;;;;;7.90;6.23;;;17.80;99.90;;;;;;5032045;28;20502;-68
2021/07/09 07:33:39;;;;;;;6.77;6.27;;;18.00;99.90;;;;;;5032399;28;20760;-68
2021/07/09 07:36:05;;;;;;;8.17;7.57;;;18.20;99.90;;;;;;5032084;28;20259;-68
2021/07/09 07:38:30;;;;;;;7.60;7.00;;;18.40;99.90;;;;;;5031917;28;20478;-68
2021/07/09 07:40:56;;;;;;;7.37;6.73;;;18.60;99.90;;;;;;5029802;28;20549;-66
2021/07/09 07:43:21;;;;;;;10.63;9.60;;;18.80;99.90;;;;;;5032144;28;20373;-68
2021/07/09 07:45:47;;;;;;;8.47;6.93;;;18.70;99.90;;;;;;5032221;28;20189;-68
2021/07/09 07:48:13;;;;;;;7.40;6.70;;;18.80;99.90;;;;;;5028765;28;20197;-65
2021/07/09 07:50:39;;;;;;;8.43;6.90;;;19.10;99.90;;;;;;5031816;28;20209;-67
2021/07/09 07:53:04;;;;;;;6.20;5.70;;;19.30;99.90;;;;;;5031379;28;20559;-65
2021/07/09 07:55:30;;;;;;;6.73;6.20;;;19.10;99.90;;;;;;5031796;28;20417;-67
2021/07/09 07:57:56;;;;;;;6.57;6.17;;;19.10;99.90;;;;;;5031442;28;20236;-65
2021/07/09 08:00:22;;;;;;;6.97;6.33;;;18.90;99.90;;;;;;5031588;28;20202;-66
2021/07/09 08:02:48;;;;;;;6.10;5.70;;;18.80;99.90;;;;;;5031352;28;20186;-66
2021/07/09 08:05:14;;;;;;;7.23;6.53;;;19.00;99.90;;;;;;5031561;28;20416;-66
2021/07/09 08:07:41;;;;;;;6.10;5.60;;;19.00;99.90;;;;;;5031732;28;20249;-66
2021/07/09 08:10:07;;;;;;;6.07;5.67;;;19.40;99.90;;;;;;5031414;28;20432;-65
2021/07/09 08:12:33;;;;;;;6.83;5.73;;;19.70;99.90;;;;;;5031240;28;20539;-67
2021/07/09 08:14:58;;;;;;;5.50;5.10;;;19.90;99.90;;;;;;5031128;28;20504;-67
2021/07/09 08:17:24;;;;;;;5.37;4.93;;;20.30;99.90;;;;;;5031370;28;20179;-67
2021/07/09 08:19:50;;;;;;;5.80;5.40;;;20.80;99.90;;;;;;5031134;28;20852;-66
2021/07/09 08:22:16;;;;;;;5.30;4.90;;;21.40;99.90;;;;;;5031122;28;20755;-64
2021/07/09 08:24:41;;;;;;;5.13;4.63;;;21.20;99.90;;;;;;5031259;28;20540;-65
2021/07/09 08:27:07;;;;;;;8.40;5.00;;;21.30;99.90;;;;;;5030258;28;20209;-67
2021/07/09 08:29:32;;;;;;;6.47;5.93;;;21.20;99.90;;;;;;5030882;28;20264;-66
2021/07/09 08:31:58;;;;;;;5.30;4.97;;;21.20;99.90;;;;;;5031186;28;20210;-66
2021/07/09 08:34:24;;;;;;;9.70;6.20;;;20.70;99.90;;;;;;5031070;28;20585;-66
2021/07/09 08:36:50;;;;;;;5.30;5.00;;;21.00;99.90;;;;;;5030891;28;20474;-67
2021/07/09 08:39:16;;;;;;;10.60;4.90;;;21.20;99.90;;;;;;5025731;28;20503;-66
2021/07/09 08:41:45;;;;;;;6.23;5.00;;;21.10;99.90;;;;;;5033742;28;20166;-67
2021/07/09 08:44:12;;;;;;;5.90;5.40;;;20.80;99.90;;;;;;5033072;28;20695;-66
2021/07/09 08:46:38;;;;;;;5.80;5.30;;;21.30;99.90;;;;;;5034067;28;20440;-65
2021/07/09 08:49:07;;;;;;;6.27;4.73;;;21.60;99.90;;;;;;5033543;28;20464;-65
2021/07/09 08:51:33;;;;;;;6.33;5.37;;;21.80;99.90;;;;;;5033993;28;20460;-66
2021/07/09 08:53:59;;;;;;;5.73;5.13;;;21.60;99.90;;;;;;5032977;28;20848;-67
2021/07/09 08:56:24;;;;;;;5.80;5.50;;;21.70;99.90;;;;;;5033784;28;20453;-67
2021/07/09 08:58:50;;;;;;;8.67;4.90;;;21.90;99.90;;;;;;5033505;28;20216;-67
2021/07/09 09:01:15;;;;;;;6.17;5.77;;;22.00;99.90;;;;;;5033769;28;20170;-67
2021/07/09 09:03:41;;;;;;;6.63;6.03;;;22.10;99.90;;;;;;5033524;28;20236;-65
2021/07/09 09:06:14;;;;;;;6.20;4.80;;;22.30;99.90;;;;;;5033463;28;20175;-67
2021/07/09 09:08:41;;;;;;;5.60;5.10;;;22.50;99.90;;;;;;5033160;28;20622;-67
2021/07/09 09:11:06;;;;;;;4.60;4.30;;;22.80;99.90;;;;;;5033608;28;20468;-67
2021/07/09 09:13:34;;;;;;;6.80;5.27;;;23.20;99.90;;;;;;5033615;28;20819;-67
2021/07/09 09:16:00;;;;;;;4.93;4.53;;;23.60;99.90;;;;;;5033545;28;20632;-67
2021/07/09 09:18:29;;;;;;;4.73;4.20;;;23.90;99.90;;;;;;5032786;28;20444;-65
2021/07/09 09:20:59;;;;;;;4.43;4.13;;;24.10;99.90;;;;;;5033235;28;20197;-65
2021/07/09 09:23:26;;;;;;;5.50;4.60;;;23.80;99.90;;;;;;5033584;28;20877;-65
2021/07/09 09:25:52;;;;;;;5.20;4.70;;;23.60;99.90;;;;;;5033294;28;20945;-66
2021/07/09 09:28:18;;;;;;;5.73;5.13;;;23.60;99.90;;;;;;5033099;28;20460;-64
2021/07/09 09:30:45;;;;;;;6.90;4.87;;;23.50;99.90;;;;;;5033033;28;20484;-66
2021/07/09 09:33:13;;;;;;;5.37;4.97;;;23.20;99.90;;;;;;5033041;28;20424;-67
2021/07/09 09:35:42;;;;;;;5.73;5.30;;;23.00;99.90;;;;;;5033203;28;20408;-66
2021/07/09 09:38:16;;;;;;;5.80;5.30;;;23.00;99.90;;;;;;5032650;28;20769;-67
2021/07/09 09:40:43;;;;;;;5.80;5.33;;;22.90;99.90;;;;;;5030153;28;20496;-67
2021/07/09 09:43:11;;;;;;;5.63;4.77;;;23.10;99.90;;;;;;5033059;28;20416;-63
2021/07/09 09:45:38;;;;;;;5.97;5.57;;;23.40;99.90;;;;;;5032594;28;20515;-65
2021/07/09 09:48:13;;;;;;;5.73;5.23;;;23.60;99.90;;;;;;5032416;28;20806;-65
2021/07/09 09:50:49;;;;;;;5.70;5.20;;;24.00;99.90;;;;;;5032332;28;20474;-65
2021/07/09 09:53:30;;;;;;;5.97;5.30;;;24.50;99.90;;;;;;5032731;28;20944;-65
2021/07/09 09:56:07;;;;;;;4.87;4.57;;;24.60;99.90;;;;;;5030856;28;20432;-65
2021/07/09 09:58:33;;;;;;;6.90;5.93;;;24.50;99.90;;;;;;5055862;23;20876;-65
2021/07/09 10:00:58;;;;;;;5.80;5.20;;;24.10;99.90;;;;;;5031832;28;20985;-65
2021/07/09 10:03:24;;;;;;;6.00;5.50;;;24.40;99.90;;;;;;5032298;28;20508;-64
2021/07/09 10:05:51;;;;;;;5.73;5.27;;;24.80;99.90;;;;;;5032404;28;20202;-62
2021/07/09 10:08:24;;;;;;;5.67;4.97;;;25.40;99.90;;;;;;5032385;28;20181;-65
2021/07/09 10:10:50;;;;;;;5.77;5.27;;;25.80;99.90;;;;;;5032326;28;20968;-64
2021/07/09 10:13:18;;;;;;;6.47;5.80;;;26.30;99.90;;;;;;5032151;28;20417;-64
2021/07/09 10:15:48;;;;;;;5.77;5.23;;;25.40;99.90;;;;;;5032357;28;20780;-63
2021/07/09 10:18:15;;;;;;;7.67;5.70;;;24.50;99.90;;;;;;5032172;28;20776;-64
2021/07/09 10:20:43;;;;;;;5.47;4.97;;;24.90;99.90;;;;;;5032103;28;20448;-64
2021/07/09 10:23:09;;;;;;;5.40;5.00;;;25.70;99.90;;;;;;5032906;28;20460;-66
2021/07/09 10:25:36;;;;;;;6.20;5.70;;;25.30;99.90;;;;;;5032040;28;20419;-69
2021/07/09 10:28:07;;;;;;;5.87;5.47;;;24.90;99.90;;;;;;5031817;28;20434;-63
2021/07/09 10:30:41;;;;;;;6.33;5.80;;;24.40;99.90;;;;;;5031399;28;20464;-63
2021/07/09 10:33:27;;;;;;;7.33;6.83;;;24.00;99.90;;;;;;5032002;28;20860;-63
2021/07/09 10:35:53;;;;;;;6.73;6.13;;;23.60;99.90;;;;;;5031977;28;20425;-64
2021/07/09 10:38:21;;;;;;;8.90;8.20;;;23.10;99.90;;;;;;5031789;28;20424;-63
2021/07/09 10:40:46;;;;;;;8.70;8.00;;;22.20;99.90;;;;;;5031736;28;20447;-64
2021/07/09 10:43:14;;;;;;;8.77;7.97;;;21.80;99.90;;;;;;5031917;28;20933;-62
2021/07/09 10:45:41;;;;;;;9.97;9.17;;;22.00;99.90;;;;;;5031928;28;20189;-63
2021/07/09 10:48:11;;;;;;;9.57;8.73;;;22.80;99.90;;;;;;5031865;28;20417;-63
2021/07/09 10:50:53;;;;;;;10.50;9.70;;;23.40;99.90;;;;;;5030854;28;21099;-61
2021/07/09 10:53:20;;;;;;;8.80;8.10;;;23.10;99.90;;;;;;5031902;28;20424;-65
2021/07/09 10:55:47;;;;;;;9.30;8.40;;;23.60;99.90;;;;;;5031709;28;20423;-66
2021/07/09 10:58:22;;;;;;;8.60;7.90;;;24.80;99.90;;;;;;5031442;28;20497;-65
2021/07/09 11:01:04;;;;;;;7.97;7.40;;;26.80;99.90;;;;;;5031665;28;20459;-65
2021/07/09 11:03:41;;;;;;;8.47;7.67;;;28.80;99.90;;;;;;5031944;28;20408;-66
2021/07/09 11:06:14;;;;;;;8.93;8.10;;;31.40;97.80;;;;;;5032004;28;20421;-67
2021/07/09 11:08:53;;;;;;;8.60;7.90;;;31.40;93.70;;;;;;5031442;28;20425;-66
2021/07/09 11:11:30;;;;;;;8.40;7.50;;;33.00;91.10;;;;;;5031860;28;20802;-65
2021/07/09 11:14:01;;;;;;;6.60;6.10;;;32.20;88.20;;;;;;5031854;28;20424;-65
2021/07/09 11:16:35;;;;;;;9.83;6.80;;;33.80;85.20;;;;;;5031578;28;20416;-65
2021/07/09 11:19:03;;;;;;;8.57;7.97;;;35.50;76.40;;;;;;5031087;28;20478;-65
2021/07/09 11:21:32;;;;;;;7.60;7.10;;;33.10;73.50;;;;;;5031443;28;20948;-65
2021/07/09 11:24:03;;;;;;;7.23;6.73;;;30.70;81.20;;;;;;5031481;28;20784;-65
2021/07/09 11:26:37;;;;;;;8.53;7.83;;;28.60;85.30;;;;;;5031566;28;20416;-66
2021/07/09 11:29:42;;;;;;;8.77;7.87;;;27.50;90.50;;;;;;5031174;28;21075;-65
2021/07/09 11:32:21;;;;;;;7.93;7.27;;;27.00;92.30;;;;;;5020268;28;20476;-65
2021/07/09 11:34:55;;;;;;;9.37;8.60;;;26.60;93.60;;;;;;5031421;28;20459;-64
2021/07/09 11:37:26;;;;;;;9.60;8.80;;;26.00;93.30;;;;;;5031443;28;20781;-65
2021/07/09 11:39:54;;;;;;;8.17;7.50;;;26.50;94.50;;;;;;5030864;28;20827;-66
2021/07/09 11:42:23;;;;;;;7.07;6.67;;;29.50;91.50;;;;;;5030357;28;20420;-67
2021/07/09 11:44:52;;;;;;;7.50;6.90;;;32.70;82.60;;;;;;5031004;28;20843;-65
2021/07/09 11:47:35;;;;;;;7.40;6.77;;;34.80;73.50;;;;;;5031417;28;20417;-65
2021/07/09 11:50:03;;;;;;;7.60;7.00;;;34.90;69.70;;;;;;5031078;28;20490;-65
2021/07/09 11:52:31;;;;;;;6.13;5.73;;;34.00;67.20;;;;;;5031315;28;20464;-66
2021/07/09 11:54:59;;;;;;;10.60;6.13;;;33.70;69.30;;;;;;5031299;28;20466;-66
2021/07/09 11:57:27;;;;;;;6.87;6.47;;;33.70;64.60;;;;;;5031049;28;20421;-65
2021/07/09 11:59:55;;;;;;;7.03;6.53;;;35.70;63.10;;;;;;5030651;28;20453;-65
2021/07/09 12:02:27;;;;;;;6.30;5.90;;;37.80;60.30;;;;;;5031561;28;20413;-65
2021/07/09 12:04:56;;;;;;;6.10;5.70;;;38.20;56.70;;;;;;5034836;28;20417;-65
2021/07/09 12:07:27;;;;;;;5.70;5.30;;;38.90;55.80;;;;;;5034817;28;20423;-66
2021/07/09 12:09:57;;;;;;;6.50;6.00;;;39.50;53.70;;;;;;5034837;28;20941;-65
2021/07/09 12:12:24;;;;;;;5.33;4.93;;;38.90;52.60;;;;;;5033489;28;20983;-65
2021/07/09 12:14:49;;;;;;;5.23;4.93;;;37.70;51.80;;;;;;5033648;28;20425;-65
2021/07/09 12:17:15;;;;;;;5.50;5.13;;;35.80;53.70;;;;;;5034571;28;20409;-65
2021/07/09 12:20:05;;;;;;;5.77;5.37;;;33.80;54.90;;;;;;5033938;28;20190;-64
2021/07/09 12:22:36;;;;;;;6.33;5.77;;;31.10;59.50;;;;;;5034295;28;20162;-65
2021/07/09 12:25:07;;;;;;;6.50;5.90;;;32.30;60.40;;;;;;5034614;28;20470;-67
2021/07/09 12:27:34;;;;;;;6.27;5.77;;;33.20;58.70;;;;;;5034354;28;20421;-65
2021/07/09 12:30:04;;;;;;;5.57;5.07;;;35.30;58.00;;;;;;5034031;28;20456;-66
2021/07/09 12:32:30;;;;;;;5.10;4.80;;;37.50;54.90;;;;;;5034034;28;20480;-66
2021/07/09 12:35:04;;;;;;;4.50;4.20;;;38.60;52.60;;;;;;5034127;28;20733;-67
2021/07/09 12:37:30;;;;;;;5.33;4.93;;;39.70;51.00;;;;;;5034144;28;20157;-67
2021/07/09 12:40:14;;;;;;;5.33;4.83;;;36.80;50.00;;;;;;5033866;28;20464;-66
2021/07/09 12:42:40;;;;;;;4.90;4.60;;;34.50;52.70;;;;;;5034058;28;20181;-66
2021/07/09 12:45:06;;;;;;;4.50;4.30;;;31.50;55.90;;;;;;5034007;28;20417;-66
2021/07/09 12:47:33;;;;;;;4.83;4.53;;;29.50;58.40;;;;;;5033557;28;20174;-66